Time;durP1;ratioP1;P1;durP2;ratioP2;P2;SDS_P1;SDS_P2;PMS_P1;PMS_P2;Temp;Humidity;BMP_temperature;BMP_pressure;BME280_temperature;BME280_humidity;BME280_pressure;Samples;Min_cycle;Max_cycle;Signal;HPM_P1;HPM_P2
2023/11/10 00:01:53;;;;;;;2.95;1.63;;;9.70;99.90;;;;;;5095746;28;20111;-89
2023/11/10 00:04:20;;;;;;;2.60;1.30;;;9.70;99.90;;;;;;5090279;28;20416;-90
2023/11/10 00:06:53;;;;;;;2.08;1.33;;;9.70;99.90;;;;;;5075684;28;20027;-89
2023/11/10 00:09:20;;;;;;;2.38;1.65;;;9.70;99.90;;;;;;5077072;28;20016;-89
2023/11/10 00:11:45;;;;;;;3.35;1.60;;;9.70;99.90;;;;;;5058598;28;20469;-89
2023/11/10 00:14:11;;;;;;;3.92;1.95;;;9.70;99.90;;;;;;5094670;28;20039;-88
2023/11/10 00:16:37;;;;;;;3.35;1.77;;;9.70;99.90;;;;;;5096252;28;20031;-89
2023/11/10 00:19:03;;;;;;;3.33;1.55;;;9.60;99.90;;;;;;5095461;28;20445;-89
2023/11/10 00:21:29;;;;;;;3.03;1.88;;;9.70;99.90;;;;;;5095137;28;20020;-88
2023/11/10 00:23:55;;;;;;;4.05;1.95;;;9.70;99.90;;;;;;5088040;28;20145;-88
2023/11/10 00:26:24;;;;;;;4.15;1.70;;;9.60;99.90;;;;;;5094674;28;20531;-89
2023/11/10 00:28:52;;;;;;;3.47;1.90;;;9.60;99.90;;;;;;5082698;28;20032;-88
2023/11/10 00:31:20;;;;;;;3.05;1.48;;;9.60;99.90;;;;;;5075943;28;20136;-88
2023/11/10 00:33:52;;;;;;;3.45;1.70;;;9.60;99.90;;;;;;5091254;28;20028;-89
2023/11/10 00:36:18;;;;;;;3.17;1.55;;;9.60;99.90;;;;;;5095150;28;20124;-88
2023/11/10 00:38:45;;;;;;;2.33;1.40;;;9.60;99.90;;;;;;5082044;28;20194;-89
2023/11/10 00:41:12;;;;;;;4.03;1.58;;;9.60;99.90;;;;;;5080322;28;20019;-88
2023/11/10 00:43:38;;;;;;;2.75;1.70;;;9.60;99.90;;;;;;5074699;28;20037;-88
2023/11/10 00:46:04;;;;;;;4.10;1.70;;;9.60;99.90;;;;;;5074632;28;20369;-89
2023/11/10 00:48:29;;;;;;;1.92;1.40;;;9.60;99.90;;;;;;5077973;28;20027;-88
2023/11/10 00:50:55;;;;;;;3.67;1.30;;;9.70;99.90;;;;;;5077602;28;20135;-87
2023/11/10 00:53:22;;;;;;;1.75;1.30;;;9.70;99.90;;;;;;5094854;28;20111;-87
2023/11/10 00:55:49;;;;;;;3.22;1.30;;;9.70;99.90;;;;;;5095807;28;20051;-88
2023/11/10 00:58:15;;;;;;;3.67;1.48;;;9.70;99.90;;;;;;5086003;28;20456;-88
2023/11/10 01:00:41;;;;;;;3.08;1.17;;;9.70;99.90;;;;;;5099969;28;20024;-88
2023/11/10 01:03:06;;;;;;;3.45;1.33;;;9.70;99.90;;;;;;5117501;28;20008;-88
2023/11/10 01:05:32;;;;;;;2.30;1.50;;;9.70;99.90;;;;;;5102194;28;20019;-89
2023/11/10 01:07:58;;;;;;;3.17;1.30;;;9.70;99.90;;;;;;5096883;28;20025;-89
2023/11/10 01:10:24;;;;;;;3.08;1.50;;;9.70;99.90;;;;;;5091069;28;20033;-89
2023/11/10 01:12:50;;;;;;;4.78;1.17;;;9.80;99.90;;;;;;5092128;28;20032;-88
2023/11/10 01:15:16;;;;;;;3.03;1.40;;;9.80;99.90;;;;;;5077884;28;20040;-88
2023/11/10 01:17:43;;;;;;;4.38;1.90;;;9.80;99.90;;;;;;5075000;28;20380;-87
2023/11/10 01:20:10;;;;;;;3.60;1.38;;;9.80;99.90;;;;;;5074390;28;20028;-88
2023/11/10 01:22:36;;;;;;;2.72;1.40;;;9.80;99.90;;;;;;5081336;28;20020;-90
2023/11/10 01:25:05;;;;;;;2.83;1.20;;;9.80;99.90;;;;;;5094094;28;20032;-88
2023/11/10 01:27:30;;;;;;;5.15;1.30;;;9.80;99.90;;;;;;5072681;28;20383;-87
2023/11/10 01:29:56;;;;;;;2.22;1.05;;;9.80;99.90;;;;;;5060041;28;20123;-89
2023/11/10 01:32:22;;;;;;;4.10;1.35;;;9.90;99.90;;;;;;5084287;28;20012;-88
2023/11/10 01:34:48;;;;;;;3.10;1.30;;;9.80;99.90;;;;;;5074026;28;20032;-87
2023/11/10 01:37:13;;;;;;;2.38;1.10;;;9.80;99.90;;;;;;5073823;28;20021;-88
2023/11/10 01:39:39;;;;;;;2.38;1.40;;;9.90;99.90;;;;;;5086661;28;20028;-88
2023/11/10 01:42:05;;;;;;;3.67;1.55;;;9.90;99.90;;;;;;5054888;28;20036;-88
2023/11/10 01:44:35;;;;;;;2.15;1.35;;;9.90;99.90;;;;;;5072616;28;20491;-88
2023/11/10 01:47:03;;;;;;;3.30;1.23;;;9.90;99.90;;;;;;5068654;28;20021;-88
2023/11/10 01:49:33;;;;;;;3.42;1.20;;;9.90;99.90;;;;;;5069865;28;20016;-88
2023/11/10 01:51:59;;;;;;;2.58;1.40;;;9.90;99.90;;;;;;5091421;28;20039;-87
2023/11/10 01:54:29;;;;;;;3.67;1.27;;;9.90;99.90;;;;;;5093424;28;20043;-89
2023/11/10 01:56:55;;;;;;;2.08;1.38;;;9.90;99.90;;;;;;5092028;28;20068;-88
2023/11/10 01:59:22;;;;;;;4.78;1.42;;;9.90;99.90;;;;;;5075657;28;20020;-87
2023/11/10 02:01:48;;;;;;;4.88;1.52;;;9.90;99.90;;;;;;5074895;28;20028;-88
2023/11/10 02:04:16;;;;;;;3.80;1.23;;;9.90;99.90;;;;;;5089846;28;20065;-87
2023/11/10 02:06:43;;;;;;;2.25;1.08;;;9.90;99.90;;;;;;5093797;28;20024;-87
2023/11/10 02:09:10;;;;;;;2.88;1.25;;;9.90;99.90;;;;;;5089067;28;20020;-87
2023/11/10 02:11:39;;;;;;;3.55;1.10;;;9.90;99.90;;;;;;5071207;28;20086;-87
2023/11/10 02:14:06;;;;;;;1.83;0.98;;;9.90;99.90;;;;;;5081012;28;20036;-88
2023/11/10 02:16:32;;;;;;;2.22;0.80;;;10.00;99.90;;;;;;5093284;28;20026;-88
2023/11/10 02:18:58;;;;;;;3.17;1.23;;;10.00;99.90;;;;;;5091025;28;20032;-88
2023/11/10 02:21:24;;;;;;;2.42;1.13;;;10.00;99.90;;;;;;5089149;28;20073;-88
2023/11/10 02:23:54;;;;;;;1.55;1.02;;;10.00;99.90;;;;;;5073224;28;20044;-87
2023/11/10 02:26:20;;;;;;;3.30;1.13;;;10.00;99.90;;;;;;5082165;28;20039;-88
2023/11/10 02:28:46;;;;;;;3.97;1.63;;;10.00;99.90;;;;;;5073433;28;20029;-89
2023/11/10 02:31:12;;;;;;;3.67;1.33;;;10.00;99.90;;;;;;5078638;28;20060;-89
2023/11/10 02:33:39;;;;;;;3.13;1.20;;;10.00;99.90;;;;;;5088679;28;20080;-88
2023/11/10 02:36:07;;;;;;;1.90;1.10;;;10.00;99.90;;;;;;5097050;28;20059;-88
2023/11/10 02:38:37;;;;;;;2.00;1.10;;;10.00;99.90;;;;;;5080361;28;20032;-88
2023/11/10 02:41:04;;;;;;;2.78;0.90;;;10.00;99.90;;;;;;5102265;28;20033;-88
2023/11/10 02:43:31;;;;;;;3.85;1.50;;;10.00;99.90;;;;;;5114236;28;20056;-88
2023/11/10 02:45:57;;;;;;;2.72;1.05;;;10.00;99.90;;;;;;5089496;28;20020;-88
2023/11/10 02:48:23;;;;;;;3.15;1.42;;;10.00;99.90;;;;;;5076914;28;20035;-88
2023/11/10 02:50:49;;;;;;;2.45;1.20;;;10.00;99.90;;;;;;5087968;28;20072;-89
2023/11/10 02:53:15;;;;;;;2.20;1.05;;;10.00;99.90;;;;;;5087050;28;20087;-88
2023/11/10 02:55:41;;;;;;;3.25;1.25;;;10.00;99.90;;;;;;5072636;28;20037;-88
2023/11/10 02:58:06;;;;;;;2.90;1.30;;;10.00;99.90;;;;;;5072899;28;20020;-88
2023/11/10 03:00:32;;;;;;;1.35;1.00;;;10.00;99.90;;;;;;5064897;28;20052;-88
2023/11/10 03:02:57;;;;;;;2.22;1.20;;;10.10;99.90;;;;;;5091366;28;20040;-88
2023/11/10 03:05:23;;;;;;;3.35;1.40;;;10.00;99.90;;;;;;5096533;28;20038;-87
2023/11/10 03:07:49;;;;;;;2.42;0.88;;;10.00;99.90;;;;;;5096807;28;20059;-88
2023/11/10 03:10:16;;;;;;;2.78;1.13;;;10.00;99.90;;;;;;5096607;28;20050;-88
2023/11/10 03:12:43;;;;;;;2.75;0.95;;;10.00;99.90;;;;;;5079805;28;20025;-89
2023/11/10 03:15:09;;;;;;;3.38;0.82;;;10.00;99.90;;;;;;5096886;28;20033;-87
2023/11/10 03:17:35;;;;;;;2.15;1.05;;;10.10;99.90;;;;;;5096355;28;20066;-88
2023/11/10 03:20:02;;;;;;;3.38;1.13;;;10.10;99.90;;;;;;5076482;28;20060;-87
2023/11/10 03:22:28;;;;;;;1.63;0.98;;;10.10;99.90;;;;;;5094633;28;20027;-88
2023/11/10 03:24:54;;;;;;;2.22;0.90;;;10.10;99.90;;;;;;5066673;28;20096;-88
2023/11/10 03:27:19;;;;;;;3.30;1.17;;;10.10;99.90;;;;;;5096372;28;20039;-86
2023/11/10 03:29:45;;;;;;;3.92;1.30;;;10.10;99.90;;;;;;5082761;28;20452;-88
2023/11/10 03:32:11;;;;;;;2.70;1.02;;;10.10;99.90;;;;;;5096153;28;20028;-88
2023/11/10 03:34:40;;;;;;;2.63;1.10;;;10.10;99.90;;;;;;5085885;28;20032;-88
2023/11/10 03:37:09;;;;;;;1.35;0.88;;;10.10;99.90;;;;;;5088486;28;20056;-88
2023/11/10 03:39:41;;;;;;;2.40;1.20;;;10.10;99.90;;;;;;5088134;28;20020;-90
2023/11/10 03:42:07;;;;;;;2.30;1.00;;;10.10;99.90;;;;;;5088807;28;20020;-89
2023/11/10 03:44:33;;;;;;;3.00;1.00;;;10.20;99.90;;;;;;5074278;28;20115;-89
2023/11/10 03:46:59;;;;;;;4.00;1.27;;;10.10;99.90;;;;;;5088185;28;20024;-88
2023/11/10 03:49:26;;;;;;;2.72;1.10;;;10.20;99.90;;;;;;5096274;28;20132;-88
2023/11/10 03:51:52;;;;;;;2.50;0.88;;;10.10;99.90;;;;;;5092779;28;20051;-89
2023/11/10 03:54:18;;;;;;;1.08;0.75;;;10.10;99.90;;;;;;5096325;28;20133;-88
2023/11/10 03:56:45;;;;;;;2.45;0.82;;;10.10;99.90;;;;;;5087646;28;20054;-89
2023/11/10 03:59:10;;;;;;;1.02;0.80;;;10.10;99.90;;;;;;5075813;28;20023;-88
2023/11/10 04:01:37;;;;;;;1.33;0.90;;;10.10;99.90;;;;;;5103461;28;20012;-88
2023/11/10 04:04:03;;;;;;;2.28;0.93;;;10.10;99.90;;;;;;5089779;28;20068;-88
2023/11/10 04:06:33;;;;;;;2.38;0.75;;;10.10;99.90;;;;;;5077995;28;20032;-89
2023/11/10 04:08:59;;;;;;;1.48;0.80;;;10.10;99.90;;;;;;5111225;28;20012;-89
2023/11/10 04:11:24;;;;;;;0.98;0.80;;;10.00;99.90;;;;;;5102951;28;20051;-88
2023/11/10 04:13:50;;;;;;;1.73;0.60;;;10.00;99.90;;;;;;5098403;28;20020;-87
2023/11/10 04:16:20;;;;;;;2.38;0.85;;;10.00;99.90;;;;;;5106763;28;20020;-88
2023/11/10 04:18:53;;;;;;;2.42;0.80;;;10.00;99.90;;;;;;5118644;28;20032;-89
2023/11/10 04:21:24;;;;;;;2.20;0.90;;;10.00;99.90;;;;;;5093850;28;20055;-89
2023/11/10 04:23:50;;;;;;;7.50;1.15;;;10.10;99.90;;;;;;5089627;28;20035;-89
2023/11/10 04:26:16;;;;;;;1.35;0.80;;;10.10;99.90;;;;;;5091695;28;20013;-88
2023/11/10 04:28:47;;;;;;;1.88;0.82;;;10.10;99.90;;;;;;5096858;28;20028;-90
2023/11/10 04:31:14;;;;;;;0.93;0.68;;;10.10;99.90;;;;;;5095091;28;20567;-88
2023/11/10 04:33:40;;;;;;;3.35;1.10;;;10.00;99.90;;;;;;5058474;28;20037;-89
2023/11/10 04:36:07;;;;;;;3.05;1.00;;;10.00;99.90;;;;;;5090189;28;20063;-89
2023/11/10 04:38:33;;;;;;;2.90;0.80;;;10.00;99.90;;;;;;5088362;28;20035;-88
2023/11/10 04:41:01;;;;;;;1.27;0.70;;;10.00;99.90;;;;;;5089057;28;20028;-88
2023/11/10 04:43:27;;;;;;;3.88;1.08;;;10.00;99.90;;;;;;5076242;28;20487;-88
2023/11/10 04:45:52;;;;;;;4.60;0.85;;;10.00;99.90;;;;;;5091155;28;20028;-89
2023/11/10 04:48:18;;;;;;;1.98;0.70;;;10.00;99.90;;;;;;5070503;28;20444;-89
2023/11/10 04:50:47;;;;;;;1.63;0.75;;;10.00;99.90;;;;;;5074406;28;20377;-88
2023/11/10 04:53:13;;;;;;;2.47;0.88;;;10.00;99.90;;;;;;5082984;28;20482;-89
2023/11/10 04:55:39;;;;;;;1.33;0.65;;;10.00;99.90;;;;;;5084795;28;20037;-88
2023/11/10 04:58:05;;;;;;;1.35;0.63;;;10.00;99.90;;;;;;5091696;28;20036;-89
2023/11/10 05:00:31;;;;;;;1.67;0.80;;;10.00;99.90;;;;;;5076922;28;20017;-90
2023/11/10 05:03:00;;;;;;;1.55;0.82;;;10.00;99.90;;;;;;5087996;28;20031;-90
2023/11/10 05:05:25;;;;;;;2.60;1.02;;;10.00;99.90;;;;;;5088644;28;20383;-88
2023/11/10 05:07:51;;;;;;;1.48;0.95;;;10.00;99.90;;;;;;5064819;28;20024;-88
2023/11/10 05:10:17;;;;;;;2.22;0.70;;;10.00;99.90;;;;;;5088032;28;20028;-88
2023/11/10 05:12:44;;;;;;;2.83;0.90;;;10.00;99.90;;;;;;5093207;28;20414;-89
2023/11/10 05:15:10;;;;;;;3.33;0.70;;;10.00;99.90;;;;;;5077732;28;20494;-88
2023/11/10 05:17:40;;;;;;;2.30;0.90;;;10.00;99.90;;;;;;5088048;28;20078;-88
2023/11/10 05:20:09;;;;;;;2.63;1.10;;;10.00;99.90;;;;;;5084523;28;20020;-89
2023/11/10 05:22:40;;;;;;;2.25;0.80;;;10.00;99.90;;;;;;5093837;28;20024;-89
2023/11/10 05:25:06;;;;;;;3.45;0.80;;;10.00;99.90;;;;;;5094045;28;20055;-89
2023/11/10 05:27:32;;;;;;;2.67;1.17;;;10.00;99.90;;;;;;5076035;28;20033;-89
2023/11/10 05:29:58;;;;;;;2.47;1.00;;;10.00;99.90;;;;;;5072739;28;20035;-88
2023/11/10 05:32:23;;;;;;;2.50;1.00;;;10.00;99.90;;;;;;5095569;28;20099;-89
2023/11/10 05:34:54;;;;;;;1.98;1.00;;;9.90;99.90;;;;;;5095276;28;20120;-88
2023/11/10 05:37:24;;;;;;;2.67;1.00;;;10.00;99.90;;;;;;5081690;28;20025;-89
2023/11/10 05:39:50;;;;;;;2.03;1.00;;;9.90;99.90;;;;;;5093416;28;20000;-89
2023/11/10 05:42:17;;;;;;;2.05;0.80;;;10.00;99.90;;;;;;5113086;28;20012;-87
2023/11/10 05:44:43;;;;;;;3.47;0.90;;;10.00;99.90;;;;;;5106715;28;20025;-86
2023/11/10 05:47:11;;;;;;;2.65;1.08;;;10.00;99.90;;;;;;5102580;28;20008;-87
2023/11/10 05:49:37;;;;;;;2.00;0.90;;;9.90;99.90;;;;;;5088580;28;20021;-89
2023/11/10 05:52:04;;;;;;;2.30;1.00;;;9.90;99.90;;;;;;5097340;28;20051;-89
2023/11/10 05:54:30;;;;;;;2.53;0.73;;;9.90;99.90;;;;;;5075710;28;20036;-90
2023/11/10 05:56:56;;;;;;;2.28;0.85;;;9.90;99.90;;;;;;5093462;28;20062;-89
2023/11/10 05:59:23;;;;;;;2.63;0.80;;;9.90;99.90;;;;;;5092389;28;20024;-89
2023/11/10 06:01:49;;;;;;;3.78;0.90;;;9.90;99.90;;;;;;5089591;28;20016;-90
2023/11/10 06:04:15;;;;;;;2.15;0.77;;;9.90;99.90;;;;;;5093938;28;20042;-89
2023/11/10 06:06:44;;;;;;;3.70;1.30;;;9.90;99.90;;;;;;5087176;28;20025;-88
2023/11/10 06:09:22;;;;;;;3.28;1.00;;;9.90;99.90;;;;;;5081325;28;20028;-88
2023/11/10 06:11:51;;;;;;;3.47;1.10;;;9.80;99.90;;;;;;5091973;28;20027;-88
2023/11/10 06:14:17;;;;;;;3.05;1.00;;;9.90;99.90;;;;;;5093615;28;20071;-89
2023/11/10 06:16:44;;;;;;;2.38;1.23;;;9.90;99.90;;;;;;5093480;28;20032;-89
2023/11/10 06:19:10;;;;;;;2.33;1.20;;;9.90;99.90;;;;;;5083838;28;20025;-89
2023/11/10 06:21:36;;;;;;;1.40;0.77;;;9.80;99.90;;;;;;5073502;28;20361;-89
2023/11/10 06:24:03;;;;;;;2.15;0.88;;;9.80;99.90;;;;;;5083738;28;20028;-90
2023/11/10 06:26:29;;;;;;;2.65;1.10;;;9.80;99.90;;;;;;5090664;28;20016;-88
2023/11/10 06:28:56;;;;;;;0.95;0.55;;;9.80;99.90;;;;;;5060585;28;20075;-88
2023/11/10 06:31:23;;;;;;;2.97;1.10;;;9.80;99.90;;;;;;5094450;28;20023;-89
2023/11/10 06:33:49;;;;;;;1.58;0.80;;;9.70;99.90;;;;;;5093252;28;20380;-87
2023/11/10 06:36:18;;;;;;;4.05;0.75;;;9.70;99.90;;;;;;5094467;28;20028;-90
2023/11/10 06:38:45;;;;;;;2.92;1.00;;;9.70;99.90;;;;;;5070908;28;20021;-88
2023/11/10 06:41:11;;;;;;;4.75;1.10;;;9.60;99.90;;;;;;5086082;28;20173;-88
2023/11/10 06:43:46;;;;;;;2.85;1.08;;;9.60;99.90;;;;;;5098417;28;20051;-88
2023/11/10 06:46:20;;;;;;;1.65;0.60;;;9.60;99.90;;;;;;5071567;28;20028;-88
2023/11/10 06:48:46;;;;;;;3.33;0.90;;;9.60;99.90;;;;;;5081966;28;20024;-88
2023/11/10 06:51:12;;;;;;;2.90;0.82;;;9.60;99.90;;;;;;5080064;28;20491;-89
2023/11/10 06:53:37;;;;;;;1.40;0.60;;;9.50;99.90;;;;;;5097034;28;20028;-88
2023/11/10 06:56:04;;;;;;;1.60;0.80;;;9.50;99.90;;;;;;5060739;28;20031;-88
2023/11/10 06:58:29;;;;;;;2.42;1.05;;;9.50;99.90;;;;;;5077380;28;20028;-88
2023/11/10 07:00:58;;;;;;;3.38;1.30;;;9.50;99.90;;;;;;5060124;28;20028;-88
2023/11/10 07:03:24;;;;;;;2.15;0.90;;;9.50;99.90;;;;;;5061297;28;20464;-88
2023/11/10 07:05:49;;;;;;;4.63;1.38;;;9.40;99.90;;;;;;5075045;28;20020;-88
2023/11/10 07:08:17;;;;;;;3.63;1.10;;;9.50;99.90;;;;;;5097823;28;20032;-88
2023/11/10 07:10:44;;;;;;;2.55;1.10;;;9.50;99.90;;;;;;5079773;28;20052;-89
2023/11/10 07:13:10;;;;;;;2.53;0.80;;;9.40;99.90;;;;;;5109116;28;20028;-89
2023/11/10 07:15:36;;;;;;;4.57;1.23;;;9.40;99.90;;;;;;5117950;28;20020;-87
2023/11/10 07:18:02;;;;;;;2.15;1.00;;;9.40;99.90;;;;;;5113110;28;20012;-88
2023/11/10 07:20:30;;;;;;;2.30;1.30;;;9.40;99.90;;;;;;5075418;28;20432;-89
2023/11/10 07:22:59;;;;;;;2.15;0.80;;;9.40;99.90;;;;;;5065911;28;20024;-89
2023/11/10 07:25:28;;;;;;;2.85;1.08;;;9.40;99.90;;;;;;5097903;28;20213;-89
2023/11/10 07:27:57;;;;;;;2.85;1.00;;;9.40;99.90;;;;;;5094687;28;20020;-88
2023/11/10 07:30:23;;;;;;;2.47;0.80;;;9.40;99.90;;;;;;5076622;28;20020;-88
2023/11/10 07:32:52;;;;;;;1.25;0.68;;;9.40;99.90;;;;;;5076304;28;20491;-88
2023/11/10 07:35:18;;;;;;;2.90;1.10;;;9.50;99.90;;;;;;5076804;28;20090;-89
2023/11/10 07:37:44;;;;;;;2.47;0.88;;;9.50;99.90;;;;;;5097448;28;20033;-88
2023/11/10 07:40:14;;;;;;;1.50;1.08;;;9.50;99.90;;;;;;5095208;28;20035;-88
2023/11/10 07:42:45;;;;;;;1.95;0.93;;;9.50;99.90;;;;;;5093846;28;20123;-88
2023/11/10 07:45:14;;;;;;;3.23;1.10;;;9.50;99.90;;;;;;5097077;28;20020;-89
2023/11/10 07:47:50;;;;;;;2.58;1.15;;;9.60;99.90;;;;;;5096087;28;20367;-89
2023/11/10 07:50:18;;;;;;;2.20;0.80;;;9.60;99.90;;;;;;5096975;28;20024;-90
2023/11/10 07:52:48;;;;;;;2.95;1.30;;;9.60;99.90;;;;;;5097550;28;20024;-88
2023/11/10 07:55:14;;;;;;;3.45;1.15;;;9.70;99.90;;;;;;5095777;28;20081;-89
2023/11/10 07:57:42;;;;;;;3.95;0.93;;;9.60;99.90;;;;;;5076500;28;20029;-89
2023/11/10 08:00:10;;;;;;;2.88;1.05;;;9.70;99.90;;;;;;5076707;28;20028;-89
2023/11/10 08:02:36;;;;;;;3.65;1.20;;;9.70;99.90;;;;;;5093171;28;20032;-89
2023/11/10 08:05:02;;;;;;;3.38;1.13;;;9.70;99.90;;;;;;5076252;28;20483;-89
2023/11/10 08:07:28;;;;;;;2.55;1.15;;;9.70;99.90;;;;;;5077835;28;20086;-90
2023/11/10 08:09:55;;;;;;;2.85;1.10;;;9.70;99.90;;;;;;5080158;28;20464;-89
2023/11/10 08:12:21;;;;;;;2.45;1.10;;;9.70;99.90;;;;;;5076076;28;20020;-88
2023/11/10 08:14:47;;;;;;;5.35;1.65;;;9.70;99.90;;;;;;5069210;28;20467;-88
2023/11/10 08:17:13;;;;;;;7.90;1.27;;;9.70;99.90;;;;;;5095632;28;20055;-90
2023/11/10 08:19:41;;;;;;;2.88;1.27;;;9.70;99.90;;;;;;5097283;28;20028;-90
2023/11/10 08:22:06;;;;;;;3.30;1.30;;;9.70;99.90;;;;;;5095410;28;20027;-88
2023/11/10 08:24:32;;;;;;;2.72;1.15;;;9.70;99.90;;;;;;5095515;28;20024;-89
2023/11/10 08:26:58;;;;;;;3.47;1.05;;;9.80;99.90;;;;;;5095254;28;20032;-89
2023/11/10 08:29:24;;;;;;;4.80;1.25;;;9.80;99.90;;;;;;5087451;28;20029;-89
2023/11/10 08:31:52;;;;;;;3.45;1.10;;;9.70;99.90;;;;;;5075505;28;20036;-90
2023/11/10 08:34:21;;;;;;;3.13;1.33;;;9.80;99.90;;;;;;5090117;28;20392;-89
2023/11/10 08:36:48;;;;;;;3.80;1.10;;;9.80;99.90;;;;;;5096954;28;20017;-89
2023/11/10 08:39:16;;;;;;;4.65;1.25;;;9.80;99.90;;;;;;5077152;28;20028;-88
2023/11/10 08:41:41;;;;;;;2.22;1.20;;;9.80;99.90;;;;;;5080182;28;20028;-88
2023/11/10 08:44:08;;;;;;;2.60;1.10;;;9.80;99.90;;;;;;5089407;28;20050;-86
2023/11/10 08:46:33;;;;;;;3.95;1.60;;;9.80;99.90;;;;;;5099303;28;20104;-88
2023/11/10 08:48:59;;;;;;;3.80;1.60;;;9.90;99.90;;;;;;5082664;28;20009;-89
2023/11/10 08:51:25;;;;;;;4.20;1.30;;;9.90;99.90;;;;;;5111035;28;20051;-89
2023/11/10 08:53:51;;;;;;;5.50;1.50;;;9.80;99.90;;;;;;5096132;28;20036;-89
2023/11/10 08:56:17;;;;;;;3.42;1.15;;;9.80;99.90;;;;;;5095382;28;20024;-88
2023/11/10 08:58:42;;;;;;;4.40;1.33;;;9.90;99.90;;;;;;5082020;28;20109;-87
2023/11/10 09:01:08;;;;;;;6.10;1.45;;;9.90;99.90;;;;;;5074645;28;20079;-88
2023/11/10 09:03:34;;;;;;;3.00;1.40;;;9.90;99.90;;;;;;5074655;28;20029;-88
2023/11/10 09:05:59;;;;;;;2.70;1.20;;;10.00;99.90;;;;;;5074921;28;20358;-88
2023/11/10 09:08:26;;;;;;;3.38;1.20;;;10.00;99.90;;;;;;5077493;28;20039;-90
2023/11/10 09:10:51;;;;;;;3.50;1.40;;;10.00;99.90;;;;;;5078089;28;20035;-88
2023/11/10 09:13:17;;;;;;;5.20;1.38;;;10.00;99.90;;;;;;5072521;28;20033;-88
2023/11/10 09:15:43;;;;;;;2.90;1.15;;;10.00;99.90;;;;;;5061184;28;20036;-88
2023/11/10 09:18:09;;;;;;;2.92;1.13;;;10.00;99.90;;;;;;5066277;28;20062;-89
2023/11/10 09:20:35;;;;;;;4.28;1.20;;;10.10;99.90;;;;;;5057919;28;20041;-89
2023/11/10 09:23:00;;;;;;;3.17;1.30;;;10.10;99.90;;;;;;5069336;28;20035;-90
2023/11/10 09:25:29;;;;;;;3.15;1.33;;;10.10;99.90;;;;;;5094308;28;20119;-88
2023/11/10 09:27:56;;;;;;;4.95;1.40;;;10.10;99.90;;;;;;5064513;28;20119;-89
2023/11/10 09:30:24;;;;;;;4.25;1.27;;;10.20;99.90;;;;;;5084364;28;20031;-89
2023/11/10 09:32:51;;;;;;;3.67;1.08;;;10.20;99.90;;;;;;5087597;28;20063;-88
2023/11/10 09:35:17;;;;;;;4.18;1.70;;;10.30;99.90;;;;;;5084930;28;20027;-89
2023/11/10 09:37:46;;;;;;;3.22;1.27;;;10.30;99.90;;;;;;5088052;28;20024;-88
2023/11/10 09:40:13;;;;;;;6.20;1.70;;;10.40;99.90;;;;;;5083481;28;20059;-89
2023/11/10 09:42:42;;;;;;;4.85;1.65;;;10.40;99.90;;;;;;5076770;28;20384;-89
2023/11/10 09:45:08;;;;;;;5.78;1.65;;;10.40;99.90;;;;;;5074095;28;20028;-88
2023/11/10 09:47:35;;;;;;;6.63;1.52;;;10.40;99.90;;;;;;5086502;28;20436;-89
2023/11/10 09:50:02;;;;;;;4.30;1.48;;;10.30;99.90;;;;;;5094111;28;20024;-89
2023/11/10 09:52:33;;;;;;;4.25;1.50;;;10.40;99.90;;;;;;5093752;28;20044;-89
2023/11/10 09:54:59;;;;;;;;;;;10.40;99.90;;;;;;5076268;28;20032;-88
2023/11/10 09:57:26;;;;;;;2.92;1.13;;;10.40;99.90;;;;;;5088729;28;19912;-89
2023/11/10 09:59:53;;;;;;;8.73;2.00;;;10.40;99.90;;;;;;5075309;28;20048;-89
2023/11/10 10:02:18;;;;;;;8.02;1.77;;;10.40;99.90;;;;;;5073387;28;20082;-88
2023/11/10 10:04:45;;;;;;;3.53;1.38;;;10.50;99.90;;;;;;5093692;28;20028;-88
2023/11/10 10:07:12;;;;;;;4.32;1.20;;;10.50;99.90;;;;;;5074229;28;20051;-90
2023/11/10 10:09:40;;;;;;;2.47;1.15;;;10.50;99.90;;;;;;5076533;28;20420;-88
2023/11/10 10:12:07;;;;;;;4.20;1.55;;;10.60;99.90;;;;;;5093522;28;20471;-88
2023/11/10 10:14:33;;;;;;;3.70;1.40;;;10.60;99.90;;;;;;5077138;28;20040;-89
2023/11/10 10:16:58;;;;;;;3.65;1.27;;;10.60;99.90;;;;;;5110777;28;20012;-86
2023/11/10 10:19:27;;;;;;;3.63;1.52;;;10.60;99.90;;;;;;5117879;28;20024;-87
2023/11/10 10:21:52;;;;;;;6.43;1.65;;;10.70;99.90;;;;;;5094425;28;20028;-89
2023/11/10 10:24:19;;;;;;;4.72;1.38;;;10.70;99.90;;;;;;5064942;28;20161;-90
2023/11/10 10:26:46;;;;;;;4.82;1.30;;;10.80;99.90;;;;;;5082046;28;20083;-90
2023/11/10 10:29:13;;;;;;;5.85;1.20;;;10.80;99.90;;;;;;5073569;28;20032;-88
2023/11/10 10:31:40;;;;;;;4.95;1.77;;;10.80;99.90;;;;;;5082198;28;20020;-89
2023/11/10 10:34:06;;;;;;;3.92;1.40;;;10.80;99.90;;;;;;5077718;28;20036;-88
2023/11/10 10:36:33;;;;;;;5.60;1.60;;;10.80;99.90;;;;;;5076458;28;20119;-89
2023/11/10 10:39:01;;;;;;;5.32;1.33;;;10.70;99.90;;;;;;5088519;28;20051;-88
2023/11/10 10:41:28;;;;;;;3.67;1.27;;;10.70;99.90;;;;;;5093129;28;20031;-88
2023/11/10 10:43:54;;;;;;;4.80;1.60;;;10.70;99.90;;;;;;5087772;28;20029;-88
2023/11/10 10:46:20;;;;;;;3.40;1.10;;;10.70;99.90;;;;;;5072661;28;20127;-88
2023/11/10 10:48:56;;;;;;;7.90;1.95;;;10.70;99.90;;;;;;5087395;28;20081;-88
2023/11/10 10:51:24;;;;;;;6.40;1.60;;;10.60;99.90;;;;;;5093838;28;20043;-88
2023/11/10 10:53:53;;;;;;;2.55;0.93;;;10.70;99.90;;;;;;5092614;28;20494;-90
2023/11/10 10:56:20;;;;;;;4.18;1.35;;;10.70;99.90;;;;;;5092659;28;20016;-86
2023/11/10 10:58:45;;;;;;;3.08;1.50;;;10.60;99.90;;;;;;5076379;28;20046;-89
2023/11/10 11:01:12;;;;;;;5.03;1.40;;;10.60;99.90;;;;;;5073652;28;20108;-87
2023/11/10 11:03:44;;;;;;;5.20;1.30;;;10.70;99.90;;;;;;5056057;28;20029;-88
2023/11/10 11:06:21;;;;;;;2.65;1.08;;;10.60;99.90;;;;;;5079005;28;20122;-89
2023/11/10 11:09:01;;;;;;;2.72;1.02;;;10.60;99.90;;;;;;5092982;28;20478;-88
2023/11/10 11:12:06;;;;;;;4.15;0.90;;;10.60;99.90;;;;;;5092783;28;20043;-89
2023/11/10 11:15:05;;;;;;;4.05;1.25;;;10.50;99.90;;;;;;5088187;28;20024;-89
2023/11/10 11:17:47;;;;;;;4.10;1.58;;;10.50;99.90;;;;;;5072457;28;20024;-89
2023/11/10 11:20:16;;;;;;;3.25;1.13;;;10.50;99.90;;;;;;5078089;28;20017;-88
2023/11/10 11:22:43;;;;;;;2.97;1.00;;;10.50;99.90;;;;;;5075531;28;20094;-88
2023/11/10 11:25:12;;;;;;;5.25;1.00;;;10.50;99.90;;;;;;5076426;28;20062;-90
2023/11/10 11:27:38;;;;;;;1.55;1.08;;;10.50;99.90;;;;;;5095218;28;20074;-88
2023/11/10 11:30:13;;;;;;;3.05;1.20;;;10.50;99.90;;;;;;5097591;28;20028;-90
2023/11/10 11:32:43;;;;;;;6.07;1.10;;;10.40;99.90;;;;;;5097753;28;20487;-89
2023/11/10 11:35:17;;;;;;;3.45;1.20;;;10.50;99.90;;;;;;5096607;28;20024;-88
2023/11/10 11:37:44;;;;;;;4.25;1.30;;;10.50;99.90;;;;;;5096354;28;20478;-89
2023/11/10 11:40:11;;;;;;;3.38;1.20;;;10.50;99.90;;;;;;5096693;28;20028;-88
2023/11/10 11:42:43;;;;;;;4.28;1.30;;;10.50;99.90;;;;;;5096985;28;20020;-89
2023/11/10 11:45:16;;;;;;;2.50;0.95;;;10.50;99.90;;;;;;5099404;28;20027;-91
2023/11/10 11:47:43;;;;;;;5.30;1.48;;;10.50;99.90;;;;;;5102796;28;20016;-88
2023/11/10 11:50:12;;;;;;;3.00;0.95;;;10.50;99.90;;;;;;5117855;28;20008;-87
2023/11/10 11:52:38;;;;;;;5.05;1.27;;;10.50;99.90;;;;;;5118683;28;20100;-88
2023/11/10 11:55:05;;;;;;;3.42;1.10;;;10.50;99.90;;;;;;5099925;28;20020;-88
2023/11/10 11:57:35;;;;;;;2.58;0.90;;;10.50;99.90;;;;;;5097316;28;20025;-89
2023/11/10 12:00:08;;;;;;;4.15;1.08;;;10.50;99.90;;;;;;5080424;28;20044;-90
2023/11/10 12:02:40;;;;;;;4.15;1.20;;;10.50;99.90;;;;;;5066100;28;20433;-89
2023/11/10 12:05:07;;;;;;;5.07;1.60;;;10.50;99.90;;;;;;5096512;28;20028;-89
2023/11/10 12:07:34;;;;;;;4.97;1.45;;;10.40;99.90;;;;;;5075476;28;20021;-89
2023/11/10 12:09:59;;;;;;;3.10;1.00;;;10.40;99.90;;;;;;5079579;28;20031;-89
2023/11/10 12:12:26;;;;;;;6.60;1.90;;;10.40;99.90;;;;;;5094713;28;20028;-90
2023/11/10 12:14:52;;;;;;;4.95;1.35;;;10.40;99.90;;;;;;5059698;28;20037;-88
2023/11/10 12:17:18;;;;;;;2.70;1.20;;;10.40;99.90;;;;;;5095799;28;20383;-89
2023/11/10 12:19:44;;;;;;;4.78;1.30;;;10.40;99.90;;;;;;5078644;28;20031;-88
2023/11/10 12:22:09;;;;;;;3.05;1.15;;;10.40;99.90;;;;;;5085437;28;20028;-89
2023/11/10 12:24:35;;;;;;;1.80;1.00;;;10.40;99.90;;;;;;5071090;28;20368;-89
2023/11/10 12:27:02;;;;;;;4.88;1.40;;;10.40;99.90;;;;;;5063422;28;20028;-89
2023/11/10 12:29:32;;;;;;;2.08;1.25;;;10.40;99.90;;;;;;5075194;28;20070;-89
2023/11/10 12:31:58;;;;;;;2.15;0.90;;;10.40;99.90;;;;;;5092709;28;20027;-89
2023/11/10 12:34:27;;;;;;;3.63;0.80;;;10.40;99.90;;;;;;5094159;28;20365;-88
2023/11/10 12:36:54;;;;;;;2.53;1.00;;;10.50;99.90;;;;;;5095205;28;20118;-88
2023/11/10 12:39:21;;;;;;;3.13;1.13;;;10.50;99.90;;;;;;5088399;28;20523;-88
2023/11/10 12:41:52;;;;;;;3.45;1.10;;;10.50;99.90;;;;;;5096352;28;20020;-89
2023/11/10 12:44:22;;;;;;;4.03;1.10;;;10.50;99.90;;;;;;5096501;28;20039;-88
2023/11/10 12:46:55;;;;;;;3.75;1.38;;;10.60;99.90;;;;;;5074736;28;20059;-89
2023/11/10 12:49:26;;;;;;;3.20;1.00;;;10.50;99.90;;;;;;5074676;28;20028;-88
2023/11/10 12:51:57;;;;;;;1.67;0.65;;;10.60;99.90;;;;;;5074047;28;20873;-88